Bluff Springs, Texas
Current Conditions -  °F | °C
As of 8:20 AM on Saturday 20 Dec 2014 (Local Time) from KAUS Reporting Station
Drizzle Drizzle  
Wind Chill:   Ceiling: 900
Heat Index:   Visibility: 4mi
Dew Point:   Wind: 7mph
Humidity: 90%   Direction: 20°NNE
Pressure: 30.24"   Gusts: NA
Location:  30.1791°N, 97.7294°W
Report Text: KAUS 201420Z 02006KT 4SM -DZ BR BKN009 OVC013 09/08 A3024 RMK AO2 P0000 T00940078
Loading
Personal Weather Stations






























Interactive Weather Map New forecast layout! Learn more

10-Day Weather Forecast

Advertisements
Track Severe Weather on mobile